Friday, October 31, 2014
11:28 UTC
  |  Log In   |  Register Free
Airport Search:

John F Kennedy Memorial Airport
(KASX)

John F Kennedy Memorial Airport Diagram
No Airport Diagram Available

FAA data valid effective September 18, 2014 - November 13, 2014 (unless otherwise noted).

 
 
 
 
 
 
 
 
 
 
 
 
 
 

Current Aviation Weather for John F Kennedy Memorial Airport (KASX)

The most recent METAR observation for KASX was updated at: 1110
METAR Summary (Translated METAR)
KASX
311100Z AUTO 34010KT 3SM -SN BR SCT017 BKN038 OVC044 M02/M03 A3046 RMK AO2 P0000 T10221033 $
KIWD
311055Z AUTO 36011G21KT 10SM SCT026 OVC038 M02/M04 A3036 RMK AO1
(32.6 nm SE from KASX)
KHYR
311053Z AUTO 36010G17KT 10SM CLR M03/M07 A3043 RMK AO2 SNE35 SLP319 P0000 T10281067
(38.2 nm SW from KASX)
TAF Summary (Translated TAF)
KIWD
(32.6 nm SE from KASX)
310521Z 3106/0106 36013G23KT 4SM -SHSN OVC020 FM311600 01014G20KT P6SM -SHSN BKN030 FM311900 36012G17KT P6SM -SHSN BKN040 FM312200 34008KT P6SM SCT040 AMD LTD TO CLD VIS AND WIND
KHYR
(38.2 nm SW from KASX)
310906Z 3109/0106 36010G18KT P6SM SCT025 BKN035 TEMPO 3109/3113 BKN025 FM311700 02007KT P6SM SCT035 FM010000 VRB03KT P6SM FEW035
  Airport Weather Conditions for KASX

 Current Weather at ASX
30° F
Light Snow
North winds at 16.1 mph
ASX NOAA Radar

Pressure: 30.44 in
Humidity: 72%
Wind: from the North at 16.1 gusting to 28.8 MPH (14 gusting to 25 KT)
Dew Point: 21.9°F
Visibility: 9.00 mi


Airport Weather Forecast for KASX

Translated METAR and TAF for KASX
Translated METAR for KASX (1123 UTC 31 October 2014)
found at http://aviationweather.gov/adds/metars/
 
METAR text: KASX 311111Z AUTO 33010KT 6SM -SN BR FEW009 BKN032 OVC041 M02/M03 A3046 RMK AO2 P0000 T10221033 $
Conditions at: KASX (ASHLAND , WI, US) observed 1111 UTC 31 October 2014
Temperature: -2.2°C (28°F)
Dewpoint: -3.3°C (26°F) [RH = 92%]
Pressure (altimeter): 30.46 inches Hg (1031.6 mb)
Winds: from the NNW (330 degrees) at 12 MPH (10 knots; 5.2 m/s)
Visibility: 6 miles (10 km)
Ceiling: 3200 feet AGL
Clouds: few clouds at 900 feet AGL
broken clouds at 3200 feet AGL
overcast cloud deck at 4100 feet AGL
Weather: -SN BR  (light snow, mist)
SOME DATA ABOVE MAY BE INACCURATE!!!
"$" is an indication the sensor requires maintenance
Translated TAF for KASX

There is no translated TAF available for this airport

Find All Airport Services Find A Hotel Find A Rental Car Find A Golf Course Find A Restaurant $100 Hamburger



FBO's on the Field
FBO Company Facility Photos Services Transportation Aviation Fuel Prices: Prices include tax
Catering Weather Repair Courtesy Rental Type 100LL JetA JetA+ MOGAS 8087
 
John F Kennedy Memorial Airport

This FBO has not yet been rated
FS:Phillips 66
Last Updated: Oct-14
Login to update fuel prices
SS:
Contact John F Kennedy Memorial AirportMore FBO Information
 
Add another FBO Facility Photos Catering Weather Repair Courtesy Rental Type 100LL JetA JetA+ MOGAS 8087
Services Transportation Aviation Fuel Prices: Prices include tax


model-print
model-print
model-print
model-print